sensor_id;sensor_type;location;lat;lon;timestamp;pressure;altitude;pressure_sealevel;temperature;humidity
44349;BME280;30068;50.986;4.564;2023-05-02T00:00:34;102104.06;;;22.88;nan
44349;BME280;30068;50.986;4.564;2023-05-02T00:03:01;102104.41;;;22.85;nan
44349;BME280;30068;50.986;4.564;2023-05-02T00:05:26;102101.88;;;22.83;nan
44349;BME280;30068;50.986;4.564;2023-05-02T00:07:52;102107.31;;;22.83;nan
44349;BME280;30068;50.986;4.564;2023-05-02T00:10:17;102108.16;;;22.84;nan
44349;BME280;30068;50.986;4.564;2023-05-02T00:12:42;102109.19;;;22.83;nan
44349;BME280;30068;50.986;4.564;2023-05-02T00:15:08;102111.91;;;22.83;nan
44349;BME280;30068;50.986;4.564;2023-05-02T00:17:34;102121.41;;;22.87;nan
44349;BME280;30068;50.986;4.564;2023-05-02T00:19:59;102119.06;;;22.84;nan
44349;BME280;30068;50.986;4.564;2023-05-02T00:22:24;102121.09;;;22.82;nan
44349;BME280;30068;50.986;4.564;2023-05-02T00:24:49;102113.94;;;22.81;nan
44349;BME280;30068;50.986;4.564;2023-05-02T00:27:15;102129.41;;;22.80;nan
44349;BME280;30068;50.986;4.564;2023-05-02T00:29:41;102136.56;;;22.81;nan
44349;BME280;30068;50.986;4.564;2023-05-02T00:32:06;102132.34;;;22.79;nan
44349;BME280;30068;50.986;4.564;2023-05-02T00:34:32;102132.34;;;22.79;nan
44349;BME280;30068;50.986;4.564;2023-05-02T00:36:57;102139.81;;;22.77;nan
44349;BME280;30068;50.986;4.564;2023-05-02T00:39:23;102125.53;;;22.75;nan
44349;BME280;30068;50.986;4.564;2023-05-02T00:41:48;102137.28;;;22.75;nan
44349;BME280;30068;50.986;4.564;2023-05-02T00:44:13;102130.44;;;22.79;nan
44349;BME280;30068;50.986;4.564;2023-05-02T00:46:39;102135.22;;;22.77;nan
44349;BME280;30068;50.986;4.564;2023-05-02T00:49:04;102141.00;;;22.74;nan
44349;BME280;30068;50.986;4.564;2023-05-02T00:51:31;102141.53;;;22.78;nan
44349;BME280;30068;50.986;4.564;2023-05-02T00:53:56;102134.53;;;22.75;nan
44349;BME280;30068;50.986;4.564;2023-05-02T00:56:22;102137.28;;;22.75;nan
44349;BME280;30068;50.986;4.564;2023-05-02T00:58:47;102135.41;;;22.76;nan
44349;BME280;30068;50.986;4.564;2023-05-02T01:01:28;102139.13;;;22.75;nan
44349;BME280;30068;50.986;4.564;2023-05-02T01:12:15;102136.91;;;22.70;nan
44349;BME280;30068;50.986;4.564;2023-05-02T01:14:33;102142.34;;;22.70;nan
44349;BME280;30068;50.986;4.564;2023-05-02T01:17:01;102142.53;;;22.69;nan
44349;BME280;30068;50.986;4.564;2023-05-02T01:19:30;102144.91;;;22.72;nan
44349;BME280;30068;50.986;4.564;2023-05-02T01:21:56;102147.47;;;22.73;nan
44349;BME280;30068;50.986;4.564;2023-05-02T01:24:27;102137.63;;;22.64;nan
44349;BME280;30068;50.986;4.564;2023-05-02T01:27:10;102144.22;;;22.70;nan
44349;BME280;30068;50.986;4.564;2023-05-02T01:29:37;102144.91;;;22.72;nan
44349;BME280;30068;50.986;4.564;2023-05-02T01:32:04;102147.63;;;22.72;nan
44349;BME280;30068;50.986;4.564;2023-05-02T01:34:30;102156.13;;;22.69;nan
44349;BME280;30068;50.986;4.564;2023-05-02T01:36:56;102160.72;;;22.68;nan
44349;BME280;30068;50.986;4.564;2023-05-02T01:39:23;102150.69;;;22.69;nan
44349;BME280;30068;50.986;4.564;2023-05-02T01:41:49;102147.97;;;22.69;nan
44349;BME280;30068;50.986;4.564;2023-05-02T01:44:16;102148.31;;;22.66;nan
44349;BME280;30068;50.986;4.564;2023-05-02T01:46:42;102148.31;;;22.66;nan
44349;BME280;30068;50.986;4.564;2023-05-02T01:49:08;102155.81;;;22.64;nan
44349;BME280;30068;50.986;4.564;2023-05-02T01:51:34;102144.06;;;22.63;nan
44349;BME280;30068;50.986;4.564;2023-05-02T01:54:01;102154.59;;;22.66;nan
44349;BME280;30068;50.986;4.564;2023-05-02T01:56:28;102154.09;;;22.63;nan
44349;BME280;30068;50.986;4.564;2023-05-02T01:58:56;102153.75;;;22.66;nan
44349;BME280;30068;50.986;4.564;2023-05-02T02:01:22;102148.31;;;22.66;nan
44349;BME280;30068;50.986;4.564;2023-05-02T02:03:49;102148.50;;;22.64;nan
44349;BME280;30068;50.986;4.564;2023-05-02T02:06:15;102149.00;;;22.60;nan
44349;BME280;30068;50.986;4.564;2023-05-02T02:08:41;102148.66;;;22.63;nan
44349;BME280;30068;50.986;4.564;2023-05-02T02:11:11;102163.97;;;22.64;nan
44349;BME280;30068;50.986;4.564;2023-05-02T02:13:38;102179.28;;;22.65;nan
44349;BME280;30068;50.986;4.564;2023-05-02T02:16:05;102179.63;;;22.62;nan
44349;BME280;30068;50.986;4.564;2023-05-02T02:18:34;102177.91;;;22.61;nan
44349;BME280;30068;50.986;4.564;2023-05-02T02:21:00;102187.94;;;22.60;nan
44349;BME280;30068;50.986;4.564;2023-05-02T02:23:27;102188.78;;;22.61;nan
44349;BME280;30068;50.986;4.564;2023-05-02T02:25:53;102196.28;;;22.59;nan
44349;BME280;30068;50.986;4.564;2023-05-02T02:28:19;102191.03;;;22.57;nan
44349;BME280;30068;50.986;4.564;2023-05-02T02:30:44;102184.38;;;22.60;nan
44349;BME280;30068;50.986;4.564;2023-05-02T02:33:10;102183.72;;;22.58;nan
44349;BME280;30068;50.986;4.564;2023-05-02T02:35:39;102187.44;;;22.57;nan
44349;BME280;30068;50.986;4.564;2023-05-02T02:40:43;102180.31;;;22.56;nan
44349;BME280;30068;50.986;4.564;2023-05-02T02:45:37;102189.66;;;22.53;nan
44349;BME280;30068;50.986;4.564;2023-05-02T02:53:03;102204.09;;;22.54;nan
44349;BME280;30068;50.986;4.564;2023-05-02T02:55:37;102203.09;;;22.55;nan
44349;BME280;30068;50.986;4.564;2023-05-02T02:58:12;102205.81;;;22.55;nan
44349;BME280;30068;50.986;4.564;2023-05-02T03:00:39;102207.84;;;22.53;nan
44349;BME280;30068;50.986;4.564;2023-05-02T03:03:05;102209.53;;;22.54;nan
44349;BME280;30068;50.986;4.564;2023-05-02T03:05:31;102209.91;;;22.51;nan
44349;BME280;30068;50.986;4.564;2023-05-02T03:07:57;102213.13;;;22.54;nan
44349;BME280;30068;50.986;4.564;2023-05-02T03:10:23;102215.34;;;22.51;nan
44349;BME280;30068;50.986;4.564;2023-05-02T03:12:48;102219.09;;;22.50;nan
44349;BME280;30068;50.986;4.564;2023-05-02T03:17:38;102225.53;;;22.49;nan
44349;BME280;30068;50.986;4.564;2023-05-02T03:20:04;102224.53;;;22.50;nan
44349;BME280;30068;50.986;4.564;2023-05-02T03:22:29;102237.44;;;22.48;nan
44349;BME280;30068;50.986;4.564;2023-05-02T03:24:57;102223.84;;;22.48;nan
44349;BME280;30068;50.986;4.564;2023-05-02T03:27:22;102231.84;;;22.49;nan
44349;BME280;30068;50.986;4.564;2023-05-02T03:29:47;102218.75;;;22.44;nan
44349;BME280;30068;50.986;4.564;2023-05-02T03:34:38;102223.66;;;22.33;nan
44349;BME280;30068;50.986;4.564;2023-05-02T03:37:03;102229.78;;;22.27;nan
44349;BME280;30068;50.986;4.564;2023-05-02T03:39:28;102230.56;;;21.95;nan
44349;BME280;30068;50.986;4.564;2023-05-02T03:41:53;102239.78;;;21.60;nan
44349;BME280;30068;50.986;4.564;2023-05-02T03:44:18;102239.94;;;21.58;nan
44349;BME280;30068;50.986;4.564;2023-05-02T03:46:44;102238.13;;;21.67;nan
44349;BME280;30068;50.986;4.564;2023-05-02T03:49:09;102234.88;;;21.72;nan
44349;BME280;30068;50.986;4.564;2023-05-02T03:51:34;102238.19;;;21.83;nan
44349;BME280;30068;50.986;4.564;2023-05-02T03:54:00;102247.53;;;21.89;nan
44349;BME280;30068;50.986;4.564;2023-05-02T03:56:26;102246.84;;;21.95;nan
44349;BME280;30068;50.986;4.564;2023-05-02T03:58:51;102245.53;;;21.99;nan
44349;BME280;30068;50.986;4.564;2023-05-02T04:01:17;102247.94;;;22.02;nan
44349;BME280;30068;50.986;4.564;2023-05-02T04:03:42;102249.63;;;22.03;nan
44349;BME280;30068;50.986;4.564;2023-05-02T04:06:07;102254.06;;;22.12;nan
44349;BME280;30068;50.986;4.564;2023-05-02T04:08:33;102247.28;;;22.16;nan
44349;BME280;30068;50.986;4.564;2023-05-02T04:10:58;102254.03;;;21.96;nan
44349;BME280;30068;50.986;4.564;2023-05-02T04:13:23;102261.53;;;22.02;nan
44349;BME280;30068;50.986;4.564;2023-05-02T04:15:48;102260.84;;;22.08;nan
44349;BME280;30068;50.986;4.564;2023-05-02T04:18:14;102261.53;;;22.18;nan
44349;BME280;30068;50.986;4.564;2023-05-02T04:20:41;102258.34;;;22.31;nan
44349;BME280;30068;50.986;4.564;2023-05-02T04:23:06;102271.06;;;22.14;nan
44349;BME280;30068;50.986;4.564;2023-05-02T04:25:32;102265.28;;;22.09;nan
44349;BME280;30068;50.986;4.564;2023-05-02T04:27:57;102268.34;;;22.14;nan
44349;BME280;30068;50.986;4.564;2023-05-02T04:30:22;102277.38;;;22.23;nan
44349;BME280;30068;50.986;4.564;2023-05-02T04:32:47;102277.88;;;22.34;nan
44349;BME280;30068;50.986;4.564;2023-05-02T04:37:39;102292.69;;;22.48;nan
44349;BME280;30068;50.986;4.564;2023-05-02T04:40:04;102297.13;;;22.57;nan
44349;BME280;30068;50.986;4.564;2023-05-02T04:42:30;102308.34;;;22.38;nan
44349;BME280;30068;50.986;4.564;2023-05-02T04:44:55;102305.44;;;22.39;nan
44349;BME280;30068;50.986;4.564;2023-05-02T04:47:21;102317.84;;;22.34;nan
44349;BME280;30068;50.986;4.564;2023-05-02T04:49:46;102322.47;;;22.50;nan
44349;BME280;30068;50.986;4.564;2023-05-02T04:52:11;102321.25;;;22.52;nan
44349;BME280;30068;50.986;4.564;2023-05-02T04:54:36;102327.91;;;22.58;nan
44349;BME280;30068;50.986;4.564;2023-05-02T04:57:02;102328.09;;;22.56;nan
44349;BME280;30068;50.986;4.564;2023-05-02T04:59:28;102329.78;;;22.57;nan
44349;BME280;30068;50.986;4.564;2023-05-02T05:01:53;102329.97;;;22.64;nan
44349;BME280;30068;50.986;4.564;2023-05-02T05:04:19;102329.59;;;22.67;nan
44349;BME280;30068;50.986;4.564;2023-05-02T05:06:44;102336.25;;;22.72;nan
44349;BME280;30068;50.986;4.564;2023-05-02T05:09:11;102342.94;;;22.78;nan
44349;BME280;30068;50.986;4.564;2023-05-02T05:11:36;102349.72;;;22.82;nan
44349;BME280;30068;50.986;4.564;2023-05-02T05:14:03;102346.00;;;22.83;nan
44349;BME280;30068;50.986;4.564;2023-05-02T05:16:28;102356.47;;;22.54;nan
44349;BME280;30068;50.986;4.564;2023-05-02T05:18:54;102360.22;;;22.44;nan
44349;BME280;30068;50.986;4.564;2023-05-02T05:21:19;102359.19;;;22.54;nan
44349;BME280;30068;50.986;4.564;2023-05-02T05:23:45;102354.09;;;22.67;nan
44349;BME280;30068;50.986;4.564;2023-05-02T05:26:12;102351.06;;;22.70;nan
44349;BME280;30068;50.986;4.564;2023-05-02T05:28:37;102354.94;;;22.67;nan
44349;BME280;30068;50.986;4.564;2023-05-02T05:31:06;102356.31;;;22.63;nan
44349;BME280;30068;50.986;4.564;2023-05-02T05:33:32;102360.56;;;22.58;nan
44349;BME280;30068;50.986;4.564;2023-05-02T05:36:07;102364.16;;;22.58;nan
44349;BME280;30068;50.986;4.564;2023-05-02T05:38:33;102369.06;;;22.63;nan
44349;BME280;30068;50.986;4.564;2023-05-02T05:40:58;102380.66;;;22.65;nan
44349;BME280;30068;50.986;4.564;2023-05-02T05:43:24;102384.41;;;22.72;nan
44349;BME280;30068;50.986;4.564;2023-05-02T05:45:50;102384.78;;;22.77;nan
44349;BME280;30068;50.986;4.564;2023-05-02T05:48:16;102389.22;;;22.78;nan
44349;BME280;30068;50.986;4.564;2023-05-02T05:50:41;102390.72;;;22.80;nan
44349;BME280;30068;50.986;4.564;2023-05-02T05:53:06;102404.34;;;22.80;nan
44349;BME280;30068;50.986;4.564;2023-05-02T05:55:32;102413.03;;;22.84;nan
44349;BME280;30068;50.986;4.564;2023-05-02T05:57:57;102410.31;;;22.92;nan
44349;BME280;30068;50.986;4.564;2023-05-02T06:00:22;102410.50;;;22.91;nan
44349;BME280;30068;50.986;4.564;2023-05-02T06:02:47;102418.50;;;22.92;nan
44349;BME280;30068;50.986;4.564;2023-05-02T06:05:13;102427.16;;;23.04;nan
44349;BME280;30068;50.986;4.564;2023-05-02T06:07:38;102423.59;;;22.95;nan
44349;BME280;30068;50.986;4.564;2023-05-02T06:10:03;102428.69;;;22.98;nan
44349;BME280;30068;50.986;4.564;2023-05-02T06:12:29;102430.72;;;22.96;nan
44349;BME280;30068;50.986;4.564;2023-05-02T06:14:54;102435.84;;;23.07;nan
44349;BME280;30068;50.986;4.564;2023-05-02T06:17:20;102450.16;;;23.09;nan
44349;BME280;30068;50.986;4.564;2023-05-02T06:19:46;102446.41;;;23.10;nan
44349;BME280;30068;50.986;4.564;2023-05-02T06:22:11;102445.03;;;23.14;nan
44349;BME280;30068;50.986;4.564;2023-05-02T06:24:37;102453.22;;;23.14;nan
44349;BME280;30068;50.986;4.564;2023-05-02T06:27:03;102449.81;;;23.12;nan
44349;BME280;30068;50.986;4.564;2023-05-02T06:29:28;102455.28;;;23.12;nan
44349;BME280;30068;50.986;4.564;2023-05-02T06:31:56;102464.97;;;23.15;nan
44349;BME280;30068;50.986;4.564;2023-05-02T06:34:21;102464.09;;;23.14;nan
44349;BME280;30068;50.986;4.564;2023-05-02T06:36:46;102459.34;;;23.08;nan
44349;BME280;30068;50.986;4.564;2023-05-02T06:39:12;102466.81;;;23.14;nan
44349;BME280;30068;50.986;4.564;2023-05-02T06:41:37;102466.50;;;23.09;nan
44349;BME280;30068;50.986;4.564;2023-05-02T06:44:02;102469.38;;;23.08;nan
44349;BME280;30068;50.986;4.564;2023-05-02T06:46:28;102472.94;;;23.08;nan
44349;BME280;30068;50.986;4.564;2023-05-02T06:48:54;102476.34;;;23.02;nan
44349;BME280;30068;50.986;4.564;2023-05-02T06:51:20;102472.94;;;23.08;nan
44349;BME280;30068;50.986;4.564;2023-05-02T06:53:46;102480.47;;;23.06;nan
44349;BME280;30068;50.986;4.564;2023-05-02T06:56:11;102485.22;;;23.04;nan
44349;BME280;30068;50.986;4.564;2023-05-02T06:58:36;102486.56;;;23.08;nan
44349;BME280;30068;50.986;4.564;2023-05-02T07:01:02;102493.53;;;23.03;nan
44349;BME280;30068;50.986;4.564;2023-05-02T07:03:27;102499.31;;;23.00;nan
44349;BME280;30068;50.986;4.564;2023-05-02T07:05:52;102498.66;;;23.06;nan
44349;BME280;30068;50.986;4.564;2023-05-02T07:08:17;102500.16;;;23.00;nan
44349;BME280;30068;50.986;4.564;2023-05-02T07:10:45;102505.59;;;23.00;nan
44349;BME280;30068;50.986;4.564;2023-05-02T07:13:10;102498.09;;;22.94;nan
44349;BME280;30068;50.986;4.564;2023-05-02T07:15:35;102506.28;;;22.94;nan
44349;BME280;30068;50.986;4.564;2023-05-02T07:18:00;102516.16;;;22.95;nan
44349;BME280;30068;50.986;4.564;2023-05-02T07:20:26;102513.28;;;22.97;nan
44349;BME280;30068;50.986;4.564;2023-05-02T07:22:51;102515.66;;;22.92;nan
44349;BME280;30068;50.986;4.564;2023-05-02T07:25:16;102513.44;;;22.95;nan
44349;BME280;30068;50.986;4.564;2023-05-02T07:27:41;102533.00;;;22.91;nan
44349;BME280;30068;50.986;4.564;2023-05-02T07:30:07;102526.69;;;22.90;nan
44349;BME280;30068;50.986;4.564;2023-05-02T07:32:32;102532.28;;;22.89;nan
44349;BME280;30068;50.986;4.564;2023-05-02T07:34:57;102526.34;;;22.85;nan
44349;BME280;30068;50.986;4.564;2023-05-02T07:37:22;102520.25;;;22.91;nan
44349;BME280;30068;50.986;4.564;2023-05-02T07:39:48;102521.75;;;22.86;nan
44349;BME280;30068;50.986;4.564;2023-05-02T07:42:13;102519.84;;;22.86;nan
44349;BME280;30068;50.986;4.564;2023-05-02T07:44:38;102514.22;;;22.79;nan
44349;BME280;30068;50.986;4.564;2023-05-02T07:47:03;102514.06;;;22.81;nan
44349;BME280;30068;50.986;4.564;2023-05-02T07:49:29;102508.63;;;22.81;nan
44349;BME280;30068;50.986;4.564;2023-05-02T07:51:55;102513.41;;;22.79;nan
44349;BME280;30068;50.986;4.564;2023-05-02T07:54:20;102517.44;;;22.75;nan
44349;BME280;30068;50.986;4.564;2023-05-02T07:56:46;102510.50;;;22.80;nan
44349;BME280;30068;50.986;4.564;2023-05-02T07:59:11;102520.72;;;22.78;nan
44349;BME280;30068;50.986;4.564;2023-05-02T08:01:37;102526.66;;;22.82;nan
44349;BME280;30068;50.986;4.564;2023-05-02T08:04:02;102529.88;;;22.77;nan
44349;BME280;30068;50.986;4.564;2023-05-02T08:06:28;102538.41;;;22.82;nan
44349;BME280;30068;50.986;4.564;2023-05-02T08:08:53;102538.38;;;22.74;nan
44349;BME280;30068;50.986;4.564;2023-05-02T08:11:18;102538.59;;;22.21;nan
44349;BME280;30068;50.986;4.564;2023-05-02T08:13:46;102550.84;;;21.99;nan
44349;BME280;30068;50.986;4.564;2023-05-02T08:16:11;102550.25;;;21.52;nan
44349;BME280;30068;50.986;4.564;2023-05-02T08:18:36;102550.19;;;21.26;nan
44349;BME280;30068;50.986;4.564;2023-05-02T08:21:02;102554.25;;;21.13;nan
44349;BME280;30068;50.986;4.564;2023-05-02T08:23:27;102556.63;;;21.25;nan
44349;BME280;30068;50.986;4.564;2023-05-02T08:25:52;102565.88;;;21.33;nan
44349;BME280;30068;50.986;4.564;2023-05-02T08:28:18;102563.69;;;21.36;nan
44349;BME280;30068;50.986;4.564;2023-05-02T08:30:43;102569.19;;;21.44;nan
44349;BME280;30068;50.986;4.564;2023-05-02T08:33:09;102567.13;;;21.56;nan
44349;BME280;30068;50.986;4.564;2023-05-02T08:35:34;102570.06;;;21.62;nan
44349;BME280;30068;50.986;4.564;2023-05-02T08:38:00;102573.88;;;21.70;nan
44349;BME280;30068;50.986;4.564;2023-05-02T08:40:25;102575.44;;;21.54;nan
44349;BME280;30068;50.986;4.564;2023-05-02T08:42:51;102575.72;;;21.51;nan
44349;BME280;30068;50.986;4.564;2023-05-02T08:45:16;102579.66;;;21.57;nan
44349;BME280;30068;50.986;4.564;2023-05-02T08:47:42;102576.97;;;21.39;nan
44349;BME280;30068;50.986;4.564;2023-05-02T08:50:08;102580.78;;;21.46;nan
44349;BME280;30068;50.986;4.564;2023-05-02T08:52:34;102582.00;;;21.52;nan
44349;BME280;30068;50.986;4.564;2023-05-02T08:55:00;102575.66;;;21.61;nan
44349;BME280;30068;50.986;4.564;2023-05-02T08:57:29;102572.63;;;21.46;nan
44349;BME280;30068;50.986;4.564;2023-05-02T08:59:55;102577.06;;;21.47;nan
44349;BME280;30068;50.986;4.564;2023-05-02T09:04:49;102584.56;;;21.71;nan
44349;BME280;30068;50.986;4.564;2023-05-02T09:07:18;102588.59;;;21.85;nan
44349;BME280;30068;50.986;4.564;2023-05-02T09:09:44;102587.94;;;21.91;nan
44349;BME280;30068;50.986;4.564;2023-05-02T09:12:09;102591.47;;;22.01;nan
44349;BME280;30068;50.986;4.564;2023-05-02T09:14:35;102586.91;;;22.01;nan
44349;BME280;30068;50.986;4.564;2023-05-02T09:17:00;102596.63;;;22.04;nan
44349;BME280;30068;50.986;4.564;2023-05-02T09:19:25;102595.91;;;22.02;nan
44349;BME280;30068;50.986;4.564;2023-05-02T09:21:51;102601.66;;;21.81;nan
44349;BME280;30068;50.986;4.564;2023-05-02T09:24:17;102600.66;;;21.82;nan
44349;BME280;30068;50.986;4.564;2023-05-02T09:26:55;102605.97;;;21.92;nan
44349;BME280;30068;50.986;4.564;2023-05-02T09:29:20;102604.91;;;22.02;nan
44349;BME280;30068;50.986;4.564;2023-05-02T09:31:45;102607.53;;;22.12;nan
44349;BME280;30068;50.986;4.564;2023-05-02T09:34:11;102602.84;;;22.22;nan
44349;BME280;30068;50.986;4.564;2023-05-02T09:36:40;102605.44;;;22.24;nan
44349;BME280;30068;50.986;4.564;2023-05-02T09:39:10;102615.75;;;22.20;nan
44349;BME280;30068;50.986;4.564;2023-05-02T09:41:40;102609.16;;;22.23;nan
44349;BME280;30068;50.986;4.564;2023-05-02T09:44:08;102611.75;;;22.32;nan
44349;BME280;30068;50.986;4.564;2023-05-02T09:46:40;102608.34;;;22.30;nan
44349;BME280;30068;50.986;4.564;2023-05-02T09:49:06;102609.66;;;22.26;nan
44349;BME280;30068;50.986;4.564;2023-05-02T09:51:32;102613.22;;;22.44;nan
44349;BME280;30068;50.986;4.564;2023-05-02T09:53:57;102618.66;;;22.44;nan
44349;BME280;30068;50.986;4.564;2023-05-02T09:56:22;102614.88;;;22.45;nan
44349;BME280;30068;50.986;4.564;2023-05-02T09:58:48;102615.66;;;22.56;nan
44349;BME280;30068;50.986;4.564;2023-05-02T10:01:16;102606.47;;;22.57;nan
44349;BME280;30068;50.986;4.564;2023-05-02T10:03:42;102614.94;;;22.54;nan
44349;BME280;30068;50.986;4.564;2023-05-02T10:06:10;102611.06;;;22.30;nan
44349;BME280;30068;50.986;4.564;2023-05-02T10:08:37;102609.88;;;22.33;nan
44349;BME280;30068;50.986;4.564;2023-05-02T10:11:03;102609.59;;;22.18;nan
44349;BME280;30068;50.986;4.564;2023-05-02T10:13:31;102616.75;;;22.19;nan
44349;BME280;30068;50.986;4.564;2023-05-02T10:15:59;102614.91;;;21.84;nan
44349;BME280;30068;50.986;4.564;2023-05-02T10:18:26;102620.13;;;21.78;nan
44349;BME280;30068;50.986;4.564;2023-05-02T10:20:59;102613.00;;;21.77;nan
44349;BME280;30068;50.986;4.564;2023-05-02T10:23:26;102616.00;;;21.91;nan
44349;BME280;30068;50.986;4.564;2023-05-02T10:25:52;102621.91;;;21.87;nan
44349;BME280;30068;50.986;4.564;2023-05-02T10:28:17;102625.44;;;21.97;nan
44349;BME280;30068;50.986;4.564;2023-05-02T10:30:43;102628.38;;;22.03;nan
44349;BME280;30068;50.986;4.564;2023-05-02T10:33:09;102627.91;;;22.08;nan
44349;BME280;30068;50.986;4.564;2023-05-02T10:35:37;102631.38;;;22.18;nan
44349;BME280;30068;50.986;4.564;2023-05-02T10:38:03;102635.50;;;22.22;nan
44349;BME280;30068;50.986;4.564;2023-05-02T10:40:30;102633.06;;;22.19;nan
44349;BME280;30068;50.986;4.564;2023-05-02T10:42:55;102634.16;;;22.26;nan
44349;BME280;30068;50.986;4.564;2023-05-02T10:45:34;102641.31;;;22.27;nan
44349;BME280;30068;50.986;4.564;2023-05-02T10:50:59;102631.84;;;22.39;nan
44349;BME280;30068;50.986;4.564;2023-05-02T10:58:51;102627.81;;;22.43;nan
44349;BME280;30068;50.986;4.564;2023-05-02T11:06:26;102642.69;;;22.31;nan
44349;BME280;30068;50.986;4.564;2023-05-02T11:08:52;102637.41;;;22.56;nan
44349;BME280;30068;50.986;4.564;2023-05-02T11:14:01;102631.84;;;22.39;nan
44349;BME280;30068;50.986;4.564;2023-05-02T11:16:32;102629.56;;;22.53;nan
44349;BME280;30068;50.986;4.564;2023-05-02T11:19:12;102626.69;;;22.54;nan
44349;BME280;30068;50.986;4.564;2023-05-02T11:21:37;102631.13;;;22.55;nan
44349;BME280;30068;50.986;4.564;2023-05-02T11:26:48;102620.22;;;22.55;nan
44349;BME280;30068;50.986;4.564;2023-05-02T11:29:16;102628.88;;;22.51;nan
44349;BME280;30068;50.986;4.564;2023-05-02T11:31:58;102629.78;;;22.59;nan
44349;BME280;30068;50.986;4.564;2023-05-02T11:34:23;102631.53;;;22.68;nan
44349;BME280;30068;50.986;4.564;2023-05-02T11:36:49;102633.03;;;22.63;nan
44349;BME280;30068;50.986;4.564;2023-05-02T11:39:18;102632.63;;;22.75;nan
44349;BME280;30068;50.986;4.564;2023-05-02T11:41:43;102632.09;;;22.72;nan
44349;BME280;30068;50.986;4.564;2023-05-02T11:44:11;102634.41;;;22.67;nan
44349;BME280;30068;50.986;4.564;2023-05-02T11:46:37;102636.47;;;22.65;nan
44349;BME280;30068;50.986;4.564;2023-05-02T11:49:02;102643.59;;;22.66;nan
44349;BME280;30068;50.986;4.564;2023-05-02T11:51:27;102633.63;;;22.74;nan
44349;BME280;30068;50.986;4.564;2023-05-02T11:53:53;102633.72;;;22.39;nan
44349;BME280;30068;50.986;4.564;2023-05-02T11:56:22;102642.75;;;21.96;nan
44349;BME280;30068;50.986;4.564;2023-05-02T11:58:48;102639.69;;;21.63;nan
44349;BME280;30068;50.986;4.564;2023-05-02T12:01:21;102641.47;;;21.73;nan
44349;BME280;30068;50.986;4.564;2023-05-02T12:03:47;102632.16;;;21.75;nan
44349;BME280;30068;50.986;4.564;2023-05-02T12:06:16;102641.78;;;21.87;nan
44349;BME280;30068;50.986;4.564;2023-05-02T12:08:45;102634.34;;;21.89;nan
44349;BME280;30068;50.986;4.564;2023-05-02T12:11:13;102639.31;;;21.94;nan
44349;BME280;30068;50.986;4.564;2023-05-02T12:13:45;102641.41;;;22.00;nan
44349;BME280;30068;50.986;4.564;2023-05-02T12:16:11;102645.56;;;22.04;nan
44349;BME280;30068;50.986;4.564;2023-05-02T12:18:37;102648.50;;;22.11;nan
44349;BME280;30068;50.986;4.564;2023-05-02T12:21:02;102649.25;;;22.21;nan
44349;BME280;30068;50.986;4.564;2023-05-02T12:25:53;102658.97;;;22.23;nan
44349;BME280;30068;50.986;4.564;2023-05-02T12:28:18;102659.19;;;22.30;nan
44349;BME280;30068;50.986;4.564;2023-05-02T12:30:45;102658.38;;;22.37;nan
44349;BME280;30068;50.986;4.564;2023-05-02T12:33:11;102659.13;;;22.48;nan
44349;BME280;30068;50.986;4.564;2023-05-02T12:35:36;102651.66;;;22.50;nan
44349;BME280;30068;50.986;4.564;2023-05-02T12:38:11;102659.28;;;22.46;nan
44349;BME280;30068;50.986;4.564;2023-05-02T12:40:38;102660.19;;;22.55;nan
44349;BME280;30068;50.986;4.564;2023-05-02T12:43:04;102664.56;;;22.22;nan
44349;BME280;30068;50.986;4.564;2023-05-02T12:45:30;102667.78;;;22.43;nan
44349;BME280;30068;50.986;4.564;2023-05-02T12:50:34;102661.06;;;22.55;nan
44349;BME280;30068;50.986;4.564;2023-05-02T12:52:59;102662.22;;;22.53;nan
44349;BME280;30068;50.986;4.564;2023-05-02T12:55:25;102668.91;;;22.58;nan
44349;BME280;30068;50.986;4.564;2023-05-02T12:58:03;102667.56;;;22.62;nan
44349;BME280;30068;50.986;4.564;2023-05-02T13:00:32;102670.13;;;22.64;nan
44349;BME280;30068;50.986;4.564;2023-05-02T13:02:57;102670.59;;;22.59;nan
44349;BME280;30068;50.986;4.564;2023-05-02T13:05:23;102680.53;;;22.68;nan
44349;BME280;30068;50.986;4.564;2023-05-02T13:07:48;102677.50;;;22.71;nan
44349;BME280;30068;50.986;4.564;2023-05-02T13:10:13;102677.03;;;22.76;nan
44349;BME280;30068;50.986;4.564;2023-05-02T13:12:41;102676.78;;;22.69;nan
44349;BME280;30068;50.986;4.564;2023-05-02T13:15:07;102680.69;;;22.67;nan
44349;BME280;30068;50.986;4.564;2023-05-02T13:17:32;102677.88;;;22.76;nan
44349;BME280;30068;50.986;4.564;2023-05-02T13:19:58;102682.47;;;22.76;nan
44349;BME280;30068;50.986;4.564;2023-05-02T13:22:23;102676.72;;;22.79;nan
44349;BME280;30068;50.986;4.564;2023-05-02T13:24:49;102689.47;;;22.78;nan
44349;BME280;30068;50.986;4.564;2023-05-02T13:27:14;102684.19;;;22.77;nan
44349;BME280;30068;50.986;4.564;2023-05-02T13:29:42;102687.63;;;22.79;nan
44349;BME280;30068;50.986;4.564;2023-05-02T13:32:07;102680.28;;;22.79;nan
44349;BME280;30068;50.986;4.564;2023-05-02T13:34:32;102679.66;;;22.86;nan
44349;BME280;30068;50.986;4.564;2023-05-02T13:36:58;102682.88;;;22.89;nan
44349;BME280;30068;50.986;4.564;2023-05-02T13:39:23;102682.66;;;22.57;nan
44349;BME280;30068;50.986;4.564;2023-05-02T13:41:48;102675.50;;;22.56;nan
44349;BME280;30068;50.986;4.564;2023-05-02T13:44:13;102668.69;;;22.08;nan
44349;BME280;30068;50.986;4.564;2023-05-02T13:46:39;102673.75;;;22.03;nan
44349;BME280;30068;50.986;4.564;2023-05-02T13:49:04;102674.25;;;21.89;nan
44349;BME280;30068;50.986;4.564;2023-05-02T13:51:30;102663.00;;;21.21;nan
44349;BME280;30068;50.986;4.564;2023-05-02T13:53:56;102674.28;;;21.44;nan
44349;BME280;30068;50.986;4.564;2023-05-02T13:56:21;102667.09;;;21.15;nan